sensor_id;sensor_type;location;lat;lon;timestamp;pressure;altitude;pressure_sealevel;temperature;humidity
56174;BME280;42058;52.308;20.924;2022-10-14T00:00:41;101071.53;;;7.45;100.00
56174;BME280;42058;52.308;20.924;2022-10-14T00:03:09;101075.01;;;7.47;100.00
56174;BME280;42058;52.308;20.924;2022-10-14T00:05:40;101069.77;;;7.47;100.00
56174;BME280;42058;52.308;20.924;2022-10-14T00:08:08;101069.33;;;7.48;100.00
56174;BME280;42058;52.308;20.924;2022-10-14T00:10:38;101065.39;;;7.48;100.00
56174;BME280;42058;52.308;20.924;2022-10-14T00:13:05;101071.94;;;7.48;100.00
56174;BME280;42058;52.308;20.924;2022-10-14T00:15:31;101059.30;;;7.47;100.00
56174;BME280;42058;52.308;20.924;2022-10-14T00:17:59;101065.84;;;7.49;100.00
56174;BME280;42058;52.308;20.924;2022-10-14T00:20:25;101064.09;;;7.49;100.00
56174;BME280;42058;52.308;20.924;2022-10-14T00:22:53;101056.23;;;7.49;100.00
56174;BME280;42058;52.308;20.924;2022-10-14T00:25:20;101047.06;;;7.49;100.00
56174;BME280;42058;52.308;20.924;2022-10-14T00:27:46;101055.81;;;7.48;100.00
56174;BME280;42058;52.308;20.924;2022-10-14T00:30:12;101054.92;;;7.49;100.00
56174;BME280;42058;52.308;20.924;2022-10-14T00:32:39;101056.23;;;7.49;100.00
56174;BME280;42058;52.308;20.924;2022-10-14T00:35:05;101057.54;;;7.49;100.00
56174;BME280;42058;52.308;20.924;2022-10-14T00:37:31;101053.61;;;7.51;100.00
56174;BME280;42058;52.308;20.924;2022-10-14T00:39:57;101043.13;;;7.53;100.00
56174;BME280;42058;52.308;20.924;2022-10-14T00:42:25;101053.16;;;7.53;100.00
56174;BME280;42058;52.308;20.924;2022-10-14T00:45:03;101049.64;;;7.57;100.00
56174;BME280;42058;52.308;20.924;2022-10-14T00:47:33;101044.85;;;7.57;100.00
56174;BME280;42058;52.308;20.924;2022-10-14T00:50:00;101043.55;;;7.57;100.00
56174;BME280;42058;52.308;20.924;2022-10-14T00:52:28;101043.55;;;7.57;100.00
56174;BME280;42058;52.308;20.924;2022-10-14T00:55:07;101041.38;;;7.55;100.00
56174;BME280;42058;52.308;20.924;2022-10-14T00:57:36;101042.69;;;7.55;100.00
56174;BME280;42058;52.308;20.924;2022-10-14T01:00:12;101042.69;;;7.51;100.00
56174;BME280;42058;52.308;20.924;2022-10-14T01:02:41;101041.83;;;7.49;100.00
56174;BME280;42058;52.308;20.924;2022-10-14T01:05:09;101040.97;;;7.47;100.00
56174;BME280;42058;52.308;20.924;2022-10-14T01:07:58;101034.87;;;7.45;100.00
56174;BME280;42058;52.308;20.924;2022-10-14T01:10:32;101031.39;;;7.43;100.00
56174;BME280;42058;52.308;20.924;2022-10-14T01:13:17;101029.63;;;7.42;100.00
56174;BME280;42058;52.308;20.924;2022-10-14T01:16:07;101032.70;;;7.40;100.00
56174;BME280;42058;52.308;20.924;2022-10-14T01:21:47;101030.53;;;7.35;100.00
56174;BME280;42058;52.308;20.924;2022-10-14T01:30:24;101024.47;;;7.28;100.00
56174;BME280;42058;52.308;20.924;2022-10-14T01:33:05;101023.61;;;7.25;100.00
56174;BME280;42058;52.308;20.924;2022-10-14T01:38:13;101015.75;;;7.19;100.00
56174;BME280;42058;52.308;20.924;2022-10-14T01:40:59;101013.58;;;7.17;100.00
56174;BME280;42058;52.308;20.924;2022-10-14T01:43:29;101012.72;;;7.15;100.00
56174;BME280;42058;52.308;20.924;2022-10-14T01:45:58;101014.03;;;7.15;100.00
56174;BME280;42058;52.308;20.924;2022-10-14T01:48:30;101005.31;;;7.14;100.00
56174;BME280;42058;52.308;20.924;2022-10-14T01:51:00;101001.80;;;7.13;100.00
56174;BME280;42058;52.308;20.924;2022-10-14T01:53:41;101001.39;;;7.12;100.00
56174;BME280;42058;52.308;20.924;2022-10-14T01:56:09;100996.60;;;7.12;100.00
56174;BME280;42058;52.308;20.924;2022-10-14T01:58:38;100995.30;;;7.12;100.00
56174;BME280;42058;52.308;20.924;2022-10-14T02:01:07;100994.84;;;7.12;100.00
56174;BME280;42058;52.308;20.924;2022-10-14T02:03:41;100990.92;;;7.14;100.00
56174;BME280;42058;52.308;20.924;2022-10-14T02:06:25;100997.46;;;7.14;100.00
56174;BME280;42058;52.308;20.924;2022-10-14T02:09:20;100990.02;;;7.15;100.00
56174;BME280;42058;52.308;20.924;2022-10-14T02:12:17;100990.92;;;7.16;100.00
56174;BME280;42058;52.308;20.924;2022-10-14T02:15:00;100988.72;;;7.17;100.00
56174;BME280;42058;52.308;20.924;2022-10-14T02:17:32;100988.27;;;7.17;100.00
56174;BME280;42058;52.308;20.924;2022-10-14T02:23:12;100986.09;;;7.17;100.00
56174;BME280;42058;52.308;20.924;2022-10-14T02:25:48;100979.55;;;7.17;100.00
56174;BME280;42058;52.308;20.924;2022-10-14T02:28:18;100986.55;;;7.16;100.00
56174;BME280;42058;52.308;20.924;2022-10-14T02:30:50;100987.41;;;7.17;100.00
56174;BME280;42058;52.308;20.924;2022-10-14T02:33:23;100985.65;;;7.19;100.00
56174;BME280;42058;52.308;20.924;2022-10-14T02:35:52;100987.41;;;7.18;100.00
56174;BME280;42058;52.308;20.924;2022-10-14T02:38:40;100982.62;;;7.19;100.00
56174;BME280;42058;52.308;20.924;2022-10-14T02:41:11;100974.77;;;7.19;100.00
56174;BME280;42058;52.308;20.924;2022-10-14T02:43:39;100978.66;;;7.21;100.00
56174;BME280;42058;52.308;20.924;2022-10-14T02:46:05;100974.73;;;7.21;100.00
56174;BME280;42058;52.308;20.924;2022-10-14T02:48:32;100972.12;;;7.21;100.00
56174;BME280;42058;52.308;20.924;2022-10-14T02:50:58;100966.88;;;7.22;100.00
56174;BME280;42058;52.308;20.924;2022-10-14T02:53:25;100964.27;;;7.22;100.00
56174;BME280;42058;52.308;20.924;2022-10-14T02:55:51;100972.11;;;7.24;100.00
56174;BME280;42058;52.308;20.924;2022-10-14T02:58:17;100971.66;;;7.26;100.00
56174;BME280;42058;52.308;20.924;2022-10-14T03:00:43;100973.42;;;7.27;100.00
56174;BME280;42058;52.308;20.924;2022-10-14T03:03:10;100971.22;;;7.26;100.00
56174;BME280;42058;52.308;20.924;2022-10-14T03:05:37;100965.98;;;7.26;100.00
56174;BME280;42058;52.308;20.924;2022-10-14T03:08:05;100963.81;;;7.27;100.00
56174;BME280;42058;52.308;20.924;2022-10-14T03:10:31;100954.20;;;7.26;100.00
56174;BME280;42058;52.308;20.924;2022-10-14T03:12:57;100956.41;;;7.27;100.00
56174;BME280;42058;52.308;20.924;2022-10-14T03:15:25;100955.52;;;7.28;100.00
56174;BME280;42058;52.308;20.924;2022-10-14T03:17:51;100954.20;;;7.28;100.00
56174;BME280;42058;52.308;20.924;2022-10-14T03:20:19;100958.13;;;7.28;100.00
56174;BME280;42058;52.308;20.924;2022-10-14T03:22:47;100950.72;;;7.29;100.00
56174;BME280;42058;52.308;20.924;2022-10-14T03:25:14;100948.10;;;7.29;100.00
56174;BME280;42058;52.308;20.924;2022-10-14T03:27:43;100947.20;;;7.30;100.00
56174;BME280;42058;52.308;20.924;2022-10-14T03:30:11;100949.41;;;7.32;100.00
56174;BME280;42058;52.308;20.924;2022-10-14T03:32:39;100951.13;;;7.33;100.00
56174;BME280;42058;52.308;20.924;2022-10-14T03:35:11;100942.41;;;7.34;100.00
56174;BME280;42058;52.308;20.924;2022-10-14T03:37:39;100947.20;;;7.36;100.00
56174;BME280;42058;52.308;20.924;2022-10-14T03:40:06;100942.83;;;7.35;100.00
56174;BME280;42058;52.308;20.924;2022-10-14T03:42:33;100941.52;;;7.37;100.00
56174;BME280;42058;52.308;20.924;2022-10-14T03:44:59;100952.84;;;7.37;100.00
56174;BME280;42058;52.308;20.924;2022-10-14T03:47:27;100949.37;;;7.38;100.00
56174;BME280;42058;52.308;20.924;2022-10-14T03:49:53;100943.27;;;7.39;100.00
56174;BME280;42058;52.308;20.924;2022-10-14T03:52:21;100941.51;;;7.40;100.00
56174;BME280;42058;52.308;20.924;2022-10-14T03:54:49;100940.61;;;7.41;100.00
56174;BME280;42058;52.308;20.924;2022-10-14T03:57:15;100941.50;;;7.41;100.00
56174;BME280;42058;52.308;20.924;2022-10-14T03:59:43;100944.98;;;7.43;100.00
56174;BME280;42058;52.308;20.924;2022-10-14T04:02:09;100943.22;;;7.44;100.00
56174;BME280;42058;52.308;20.924;2022-10-14T04:04:36;100941.91;;;7.45;100.00
56174;BME280;42058;52.308;20.924;2022-10-14T04:07:03;100940.15;;;7.47;100.00
56174;BME280;42058;52.308;20.924;2022-10-14T04:09:29;100935.36;;;7.48;100.00
56174;BME280;42058;52.308;20.924;2022-10-14T04:11:55;100935.77;;;7.51;100.00
56174;BME280;42058;52.308;20.924;2022-10-14T04:14:26;100933.59;;;7.50;100.00
56174;BME280;42058;52.308;20.924;2022-10-14T04:16:52;100933.14;;;7.53;100.00
56174;BME280;42058;52.308;20.924;2022-10-14T04:19:19;100928.77;;;7.55;100.00
56174;BME280;42058;52.308;20.924;2022-10-14T04:21:45;100930.07;;;7.55;100.00
56174;BME280;42058;52.308;20.924;2022-10-14T04:24:11;100925.69;;;7.57;100.00
56174;BME280;42058;52.308;20.924;2022-10-14T04:26:39;100922.20;;;7.58;100.00
56174;BME280;42058;52.308;20.924;2022-10-14T04:29:08;100910.83;;;7.59;100.00
56174;BME280;42058;52.308;20.924;2022-10-14T04:31:36;100918.69;;;7.60;100.00
56174;BME280;42058;52.308;20.924;2022-10-14T04:34:02;100911.28;;;7.60;100.00
56174;BME280;42058;52.308;20.924;2022-10-14T04:36:30;100909.06;;;7.61;100.00
56174;BME280;42058;52.308;20.924;2022-10-14T04:38:57;100908.20;;;7.62;100.00
56174;BME280;42058;52.308;20.924;2022-10-14T04:41:23;100900.34;;;7.62;100.00
56174;BME280;42058;52.308;20.924;2022-10-14T04:43:51;100897.73;;;7.62;100.00
56174;BME280;42058;52.308;20.924;2022-10-14T04:46:22;100891.59;;;7.63;100.00
56174;BME280;42058;52.308;20.924;2022-10-14T04:48:48;100885.05;;;7.63;100.00
56174;BME280;42058;52.308;20.924;2022-10-14T04:51:15;100887.66;;;7.63;100.00
56174;BME280;42058;52.308;20.924;2022-10-14T04:54:00;100893.34;;;7.64;100.00
56174;BME280;42058;52.308;20.924;2022-10-14T04:56:40;100894.20;;;7.63;100.00
56174;BME280;42058;52.308;20.924;2022-10-14T04:59:06;100899.03;;;7.63;100.00
56174;BME280;42058;52.308;20.924;2022-10-14T05:01:49;100888.10;;;7.64;100.00
56174;BME280;42058;52.308;20.924;2022-10-14T05:04:15;100892.90;;;7.63;100.00
56174;BME280;42058;52.308;20.924;2022-10-14T05:06:42;100899.44;;;7.64;100.00
56174;BME280;42058;52.308;20.924;2022-10-14T05:09:09;100898.14;;;7.63;100.00
56174;BME280;42058;52.308;20.924;2022-10-14T05:11:36;100895.09;;;7.65;100.00
56174;BME280;42058;52.308;20.924;2022-10-14T05:14:03;100900.75;;;7.66;100.00
56174;BME280;42058;52.308;20.924;2022-10-14T05:16:31;100898.13;;;7.66;100.00
56174;BME280;42058;52.308;20.924;2022-10-14T05:18:57;100895.95;;;7.67;100.00
56174;BME280;42058;52.308;20.924;2022-10-14T05:21:24;100889.36;;;7.70;100.00
56174;BME280;42058;52.308;20.924;2022-10-14T05:23:55;100888.05;;;7.70;100.00
56174;BME280;42058;52.308;20.924;2022-10-14T05:26:22;100892.88;;;7.70;100.00
56174;BME280;42058;52.308;20.924;2022-10-14T05:28:50;100888.90;;;7.74;100.00
56174;BME280;42058;52.308;20.924;2022-10-14T05:31:17;100890.65;;;7.75;100.00
56174;BME280;42058;52.308;20.924;2022-10-14T05:33:45;100898.50;;;7.76;100.00
56174;BME280;42058;52.308;20.924;2022-10-14T05:36:11;100894.98;;;7.79;100.00
56174;BME280;42058;52.308;20.924;2022-10-14T05:38:38;100901.97;;;7.81;100.00
56174;BME280;42058;52.308;20.924;2022-10-14T05:41:04;100890.58;;;7.82;100.00
56174;BME280;42058;52.308;20.924;2022-10-14T05:43:31;100902.36;;;7.85;100.00
56174;BME280;42058;52.308;20.924;2022-10-14T05:45:58;100898.42;;;7.87;100.00
56174;BME280;42058;52.308;20.924;2022-10-14T05:48:26;100895.34;;;7.89;100.00
56174;BME280;42058;52.308;20.924;2022-10-14T05:50:52;100895.75;;;7.92;100.00
56174;BME280;42058;52.308;20.924;2022-10-14T05:53:19;100896.60;;;7.94;100.00
56174;BME280;42058;52.308;20.924;2022-10-14T05:55:47;100895.27;;;7.97;100.00
56174;BME280;42058;52.308;20.924;2022-10-14T05:58:13;100894.82;;;7.99;100.00
56174;BME280;42058;52.308;20.924;2022-10-14T06:00:40;100893.05;;;8.01;100.00
56174;BME280;42058;52.308;20.924;2022-10-14T06:03:10;100896.52;;;8.04;100.00
56174;BME280;42058;52.308;20.924;2022-10-14T06:05:38;100892.13;;;8.06;100.00
56174;BME280;42058;52.308;20.924;2022-10-14T06:08:05;100891.25;;;8.09;100.00
56174;BME280;42058;52.308;20.924;2022-10-14T06:10:34;100902.99;;;8.12;100.00
56174;BME280;42058;52.308;20.924;2022-10-14T06:13:01;100899.95;;;8.14;100.00
56174;BME280;42058;52.308;20.924;2022-10-14T06:15:27;100896.86;;;8.18;100.00
56174;BME280;42058;52.308;20.924;2022-10-14T06:17:54;100901.19;;;8.20;100.00
56174;BME280;42058;52.308;20.924;2022-10-14T06:20:20;100898.11;;;8.22;100.00
56174;BME280;42058;52.308;20.924;2022-10-14T06:22:46;100895.02;;;8.26;100.00
56174;BME280;42058;52.308;20.924;2022-10-14T06:25:12;100887.55;;;8.28;100.00
56174;BME280;42058;52.308;20.924;2022-10-14T06:27:39;100893.63;;;8.34;100.00
56174;BME280;42058;52.308;20.924;2022-10-14T06:30:05;100891.84;;;8.37;100.00
56174;BME280;42058;52.308;20.924;2022-10-14T06:32:32;100893.59;;;8.38;100.00
56174;BME280;42058;52.308;20.924;2022-10-14T06:34:58;100892.23;;;8.41;100.00
56174;BME280;42058;52.308;20.924;2022-10-14T06:37:25;100897.94;;;8.44;100.00
56174;BME280;42058;52.308;20.924;2022-10-14T06:39:51;100904.47;;;8.47;100.00
56174;BME280;42058;52.308;20.924;2022-10-14T06:42:17;100900.48;;;8.50;100.00
56174;BME280;42058;52.308;20.924;2022-10-14T06:44:44;100897.84;;;8.53;100.00
56174;BME280;42058;52.308;20.924;2022-10-14T06:47:10;100895.60;;;8.57;100.00
56174;BME280;42058;52.308;20.924;2022-10-14T06:49:36;100897.77;;;8.59;100.00
56174;BME280;42058;52.308;20.924;2022-10-14T06:52:02;100907.77;;;8.64;100.00
56174;BME280;42058;52.308;20.924;2022-10-14T06:54:28;100903.36;;;8.68;100.00
56174;BME280;42058;52.308;20.924;2022-10-14T06:56:55;100910.73;;;8.73;100.00
56174;BME280;42058;52.308;20.924;2022-10-14T06:59:21;100908.95;;;8.77;100.00
56174;BME280;42058;52.308;20.924;2022-10-14T07:01:47;100912.86;;;8.80;100.00
56174;BME280;42058;52.308;20.924;2022-10-14T07:04:13;100911.08;;;8.83;100.00
56174;BME280;42058;52.308;20.924;2022-10-14T07:06:39;100910.59;;;8.87;100.00
56174;BME280;42058;52.308;20.924;2022-10-14T07:09:05;100917.95;;;8.91;100.00
56174;BME280;42058;52.308;20.924;2022-10-14T07:11:31;100916.17;;;8.94;100.00
56174;BME280;42058;52.308;20.924;2022-10-14T07:13:57;100910.89;;;8.97;100.00
56174;BME280;42058;52.308;20.924;2022-10-14T07:16:23;100908.22;;;9.02;100.00
56174;BME280;42058;52.308;20.924;2022-10-14T07:18:49;100905.12;;;9.06;100.00
56174;BME280;42058;52.308;20.924;2022-10-14T07:21:16;100910.74;;;9.10;100.00
56174;BME280;42058;52.308;20.924;2022-10-14T07:23:42;100904.16;;;9.13;100.00
56174;BME280;42058;52.308;20.924;2022-10-14T07:26:08;100905.83;;;9.18;100.00
56174;BME280;42058;52.308;20.924;2022-10-14T07:28:36;100907.97;;;9.22;100.00
56174;BME280;42058;52.308;20.924;2022-10-14T07:31:07;100906.58;;;9.27;100.00
56174;BME280;42058;52.308;20.924;2022-10-14T07:33:35;100906.52;;;9.33;100.00
56174;BME280;42058;52.308;20.924;2022-10-14T07:36:05;100910.38;;;9.37;100.00
56174;BME280;42058;52.308;20.924;2022-10-14T07:38:34;100905.49;;;9.41;100.00
56174;BME280;42058;52.308;20.924;2022-10-14T07:41:06;100903.69;;;9.45;100.00
56174;BME280;42058;52.308;20.924;2022-10-14T07:43:35;100901.02;;;9.50;100.00
56174;BME280;42058;52.308;20.924;2022-10-14T07:46:03;100907.08;;;9.55;100.00
56174;BME280;42058;52.308;20.924;2022-10-14T07:48:33;100898.25;;;9.59;100.00
56174;BME280;42058;52.308;20.924;2022-10-14T07:50:59;100901.23;;;9.65;100.00
56174;BME280;42058;52.308;20.924;2022-10-14T07:53:26;100900.70;;;9.71;100.00
56174;BME280;42058;52.308;20.924;2022-10-14T07:55:57;100895.77;;;9.78;100.00
56174;BME280;42058;52.308;20.924;2022-10-14T07:58:26;100893.47;;;9.86;100.00
56174;BME280;42058;52.308;20.924;2022-10-14T08:00:54;100895.05;;;9.94;100.00
56174;BME280;42058;52.308;20.924;2022-10-14T08:03:21;100889.64;;;10.04;100.00
56174;BME280;42058;52.308;20.924;2022-10-14T08:05:48;100891.30;;;10.09;100.00
56174;BME280;42058;52.308;20.924;2022-10-14T08:08:16;100887.27;;;10.15;100.00
56174;BME280;42058;52.308;20.924;2022-10-14T08:10:43;100889.78;;;10.22;100.00
56174;BME280;42058;52.308;20.924;2022-10-14T08:13:10;100895.83;;;10.27;100.00
56174;BME280;42058;52.308;20.924;2022-10-14T08:15:38;100884.81;;;10.32;100.00
56174;BME280;42058;52.308;20.924;2022-10-14T08:18:07;100889.93;;;10.39;100.00
56174;BME280;42058;52.308;20.924;2022-10-14T08:20:35;100889.36;;;10.48;100.00
56174;BME280;42058;52.308;20.924;2022-10-14T08:23:01;100889.62;;;10.55;100.00
56174;BME280;42058;52.308;20.924;2022-10-14T08:25:28;100890.82;;;10.63;100.00
56174;BME280;42058;52.308;20.924;2022-10-14T08:27:55;100886.72;;;10.70;100.00
56174;BME280;42058;52.308;20.924;2022-10-14T08:30:23;100887.47;;;10.77;100.00
56174;BME280;42058;52.308;20.924;2022-10-14T08:32:50;100893.46;;;10.84;100.00
56174;BME280;42058;52.308;20.924;2022-10-14T08:35:16;100901.28;;;10.88;100.00
56174;BME280;42058;52.308;20.924;2022-10-14T08:37:42;100899.43;;;10.93;100.00
56174;BME280;42058;52.308;20.924;2022-10-14T08:40:14;100899.29;;;11.00;100.00
56174;BME280;42058;52.308;20.924;2022-10-14T08:42:57;100895.63;;;11.07;100.00
56174;BME280;42058;52.308;20.924;2022-10-14T08:45:34;100896.41;;;11.12;100.00
56174;BME280;42058;52.308;20.924;2022-10-14T08:48:08;100893.14;;;11.20;100.00
56174;BME280;42058;52.308;20.924;2022-10-14T08:50:43;100893.45;;;11.26;100.00
56174;BME280;42058;52.308;20.924;2022-10-14T08:53:16;100900.30;;;11.34;100.00
56174;BME280;42058;52.308;20.924;2022-10-14T08:55:47;100895.77;;;11.41;100.00
56174;BME280;42058;52.308;20.924;2022-10-14T08:58:42;100887.69;;;11.49;100.00
56174;BME280;42058;52.308;20.924;2022-10-14T09:01:31;100889.28;;;11.56;100.00
56174;BME280;42058;52.308;20.924;2022-10-14T09:04:05;100881.18;;;11.64;100.00
56174;BME280;42058;52.308;20.924;2022-10-14T09:06:34;100885.38;;;11.72;100.00
56174;BME280;42058;52.308;20.924;2022-10-14T09:12:08;100878.86;;;11.87;100.00
56174;BME280;42058;52.308;20.924;2022-10-14T09:14:44;100878.66;;;11.97;100.00
56174;BME280;42058;52.308;20.924;2022-10-14T09:17:19;100872.78;;;12.03;100.00
56174;BME280;42058;52.308;20.924;2022-10-14T09:19:53;100871.73;;;12.10;100.00
56174;BME280;42058;52.308;20.924;2022-10-14T09:22:22;100864.46;;;12.19;100.00
56174;BME280;42058;52.308;20.924;2022-10-14T09:24:48;100868.28;;;12.25;100.00
56174;BME280;42058;52.308;20.924;2022-10-14T09:27:21;100864.61;;;12.30;100.00
56174;BME280;42058;52.308;20.924;2022-10-14T09:32:30;100875.70;;;12.43;100.00
56174;BME280;42058;52.308;20.924;2022-10-14T09:35:02;100870.28;;;12.48;100.00
56174;BME280;42058;52.308;20.924;2022-10-14T09:37:31;100867.53;;;12.53;100.00
56174;BME280;42058;52.308;20.924;2022-10-14T09:42:50;100860.67;;;12.62;100.00
56174;BME280;42058;52.308;20.924;2022-10-14T09:45:57;100858.77;;;12.67;100.00
56174;BME280;42058;52.308;20.924;2022-10-14T09:48:35;100862.97;;;12.74;100.00
56174;BME280;42058;52.308;20.924;2022-10-14T09:51:27;100864.57;;;12.80;100.00
56174;BME280;42058;52.308;20.924;2022-10-14T09:53:39;100866.16;;;12.85;100.00
56174;BME280;42058;52.308;20.924;2022-10-14T09:56:11;100861.63;;;12.91;100.00
56174;BME280;42058;52.308;20.924;2022-10-14T09:58:46;100855.72;;;12.96;100.00
56174;BME280;42058;52.308;20.924;2022-10-14T10:01:17;100855.95;;;13.03;100.00
56174;BME280;42058;52.308;20.924;2022-10-14T10:03:47;100862.39;;;13.09;100.00
56174;BME280;42058;52.308;20.924;2022-10-14T10:06:16;100858.23;;;13.15;100.00
56174;BME280;42058;52.308;20.924;2022-10-14T10:08:55;100855.04;;;13.19;100.00
56174;BME280;42058;52.308;20.924;2022-10-14T10:11:34;100845.23;;;13.22;100.00
56174;BME280;42058;52.308;20.924;2022-10-14T10:14:31;100854.29;;;13.28;100.00
56174;BME280;42058;52.308;20.924;2022-10-14T10:17:14;100844.02;;;13.34;100.00
56174;BME280;42058;52.308;20.924;2022-10-14T10:19:47;100857.91;;;13.41;100.00
56174;BME280;42058;52.308;20.924;2022-10-14T10:22:23;100855.09;;;13.47;100.00
56174;BME280;42058;52.308;20.924;2022-10-14T10:27:56;100845.94;;;13.57;100.00
56174;BME280;42058;52.308;20.924;2022-10-14T10:30:25;100848.45;;;13.62;100.00
56174;BME280;42058;52.308;20.924;2022-10-14T10:38:33;100837.01;;;13.75;100.00
56174;BME280;42058;52.308;20.924;2022-10-14T10:44:26;100836.70;;;13.84;100.00
56174;BME280;42058;52.308;20.924;2022-10-14T10:47:19;100836.90;;;13.91;100.00
56174;BME280;42058;52.308;20.924;2022-10-14T10:53:19;100831.25;;;14.02;100.00
56174;BME280;42058;52.308;20.924;2022-10-14T10:56:14;100825.78;;;14.07;100.00
56174;BME280;42058;52.308;20.924;2022-10-14T11:04:56;100832.27;;;14.23;100.00
56174;BME280;42058;52.308;20.924;2022-10-14T11:07:50;100825.03;;;14.28;100.00
56174;BME280;42058;52.308;20.924;2022-10-14T11:14:17;100820.67;;;14.39;100.00
56174;BME280;42058;52.308;20.924;2022-10-14T11:19:38;100812.34;;;14.50;100.00
56174;BME280;42058;52.308;20.924;2022-10-14T11:22:27;100801.94;;;14.57;99.88
56174;BME280;42058;52.308;20.924;2022-10-14T11:31:27;100797.30;;;14.75;99.32
56174;BME280;42058;52.308;20.924;2022-10-14T11:39:54;100790.48;;;14.92;98.84
56174;BME280;42058;52.308;20.924;2022-10-14T11:42:26;100779.31;;;14.95;99.35
56174;BME280;42058;52.308;20.924;2022-10-14T11:45:17;100778.25;;;15.11;98.29
56174;BME280;42058;52.308;20.924;2022-10-14T11:47:47;100783.82;;;15.15;98.57
56174;BME280;42058;52.308;20.924;2022-10-14T11:50:17;100772.16;;;15.19;98.72
56174;BME280;42058;52.308;20.924;2022-10-14T11:55:23;100779.06;;;15.24;98.12
56174;BME280;42058;52.308;20.924;2022-10-14T11:57:59;100779.36;;;15.28;98.02
56174;BME280;42058;52.308;20.924;2022-10-14T12:06:38;100768.38;;;15.47;96.97
56174;BME280;42058;52.308;20.924;2022-10-14T12:09:43;100770.91;;;15.50;97.20
56174;BME280;42058;52.308;20.924;2022-10-14T12:12:13;100770.91;;;15.50;97.20
56174;BME280;42058;52.308;20.924;2022-10-14T12:14:48;100762.54;;;15.49;96.99
56174;BME280;42058;52.308;20.924;2022-10-14T12:17:44;100759.13;;;15.57;97.51
56174;BME280;42058;52.308;20.924;2022-10-14T12:20:32;100749.72;;;15.61;97.35
56174;BME280;42058;52.308;20.924;2022-10-14T12:23:00;100745.84;;;15.68;97.01
56174;BME280;42058;52.308;20.924;2022-10-14T12:25:44;100745.84;;;15.68;97.01
56174;BME280;42058;52.308;20.924;2022-10-14T12:28:11;100751.45;;;15.72;96.94
56174;BME280;42058;52.308;20.924;2022-10-14T12:30:40;100749.55;;;15.75;96.60
56174;BME280;42058;52.308;20.924;2022-10-14T12:33:09;100744.19;;;15.77;96.32
56174;BME280;42058;52.308;20.924;2022-10-14T12:35:56;100747.89;;;15.83;96.63
56174;BME280;42058;52.308;20.924;2022-10-14T12:38:27;100750.27;;;15.89;96.17
56174;BME280;42058;52.308;20.924;2022-10-14T12:43:59;100742.59;;;15.93;95.71
56174;BME280;42058;52.308;20.924;2022-10-14T12:46:27;100735.42;;;15.95;95.64
56174;BME280;42058;52.308;20.924;2022-10-14T12:48:53;100730.12;;;15.95;95.57
56174;BME280;42058;52.308;20.924;2022-10-14T12:51:21;100742.44;;;15.97;95.40
56174;BME280;42058;52.308;20.924;2022-10-14T12:53:55;100733.62;;;15.96;95.38
56174;BME280;42058;52.308;20.924;2022-10-14T12:56:29;100735.27;;;15.99;94.91
56174;BME280;42058;52.308;20.924;2022-10-14T12:59:00;100736.88;;;16.03;94.78
56174;BME280;42058;52.308;20.924;2022-10-14T13:01:29;100733.21;;;16.05;94.92
56174;BME280;42058;52.308;20.924;2022-10-14T13:04:07;100737.51;;;16.08;94.77
56174;BME280;42058;52.308;20.924;2022-10-14T13:06:40;100737.38;;;16.11;95.21
56174;BME280;42058;52.308;20.924;2022-10-14T13:14:29;100735.86;;;16.16;94.37
56174;BME280;42058;52.308;20.924;2022-10-14T13:19:53;100735.45;;;16.14;94.27
56174;BME280;42058;52.308;20.924;2022-10-14T13:22:33;100730.14;;;16.14;94.21
56174;BME280;42058;52.308;20.924;2022-10-14T13:25:15;100731.95;;;16.14;94.36
56174;BME280;42058;52.308;20.924;2022-10-14T13:28:02;100727.30;;;16.19;94.84
56174;BME280;42058;52.308;20.924;2022-10-14T13:31:07;100724.70;;;16.18;95.18
56174;BME280;42058;52.308;20.924;2022-10-14T13:33:44;100724.70;;;16.18;95.18
56174;BME280;42058;52.308;20.924;2022-10-14T13:36:15;100728.87;;;16.23;95.12
56174;BME280;42058;52.308;20.924;2022-10-14T13:38:56;100719.83;;;16.27;95.16
56174;BME280;42058;52.308;20.924;2022-10-14T13:41:24;100718.63;;;16.24;95.20
56174;BME280;42058;52.308;20.924;2022-10-14T13:43:55;100718.63;;;16.24;95.20
56174;BME280;42058;52.308;20.924;2022-10-14T13:46:40;100725.14;;;16.27;94.84
56174;BME280;42058;52.308;20.924;2022-10-14T13:49:14;100724.77;;;16.26;94.54
56174;BME280;42058;52.308;20.924;2022-10-14T13:51:56;100726.09;;;16.26;94.14
56174;BME280;42058;52.308;20.924;2022-10-14T13:54:37;100726.09;;;16.26;94.14
56174;BME280;42058;52.308;20.924;2022-10-14T13:59:43;100724.77;;;16.26;94.55
56174;BME280;42058;52.308;20.924;2022-10-14T14:02:16;100724.22;;;16.28;94.46
56174;BME280;42058;52.308;20.924;2022-10-14T14:04:52;100724.22;;;16.28;94.46
56174;BME280;42058;52.308;20.924;2022-10-14T14:07:26;100725.92;;;16.29;94.53
56174;BME280;42058;52.308;20.924;2022-10-14T14:09:59;100722.01;;;16.28;94.76
56174;BME280;42058;52.308;20.924;2022-10-14T14:12:25;100723.44;;;16.26;94.62
56174;BME280;42058;52.308;20.924;2022-10-14T14:14:52;100715.98;;;16.24;94.55
56174;BME280;42058;52.308;20.924;2022-10-14T14:17:22;100722.71;;;16.23;94.61
56174;BME280;42058;52.308;20.924;2022-10-14T14:19:50;100712.70;;;16.19;94.47
56174;BME280;42058;52.308;20.924;2022-10-14T14:22:29;100714.53;;;16.17;94.57
56174;BME280;42058;52.308;20.924;2022-10-14T14:27:53;100716.62;;;16.10;94.69